Time;durP1;ratioP1;P1;durP2;ratioP2;P2;SDS_P1;SDS_P2;PMS_P1;PMS_P2;Temp;Humidity;BMP_temperature;BMP_pressure;BME280_temperature;BME280_humidity;BME280_pressure;Samples;Min_cycle;Max_cycle;Signal;HPM_P1;HPM_P2
2024/02/20 00:00:14;;;;;;;3.28;1.98;;;;;;;;;;2053658;28;20022;-43
2024/02/20 00:01:15;;;;;;;4.18;1.92;;;;;;;;;;2048729;29;20482;-43
2024/02/20 00:02:16;;;;;;;2.83;1.45;;;;;;;;;;2052125;28;20019;-44
2024/02/20 00:03:18;;;;;;;3.10;1.70;;;;;;;;;;2055915;28;20121;-44
2024/02/20 00:04:20;;;;;;;3.22;2.00;;;;;;;;;;2055812;28;20011;-43
2024/02/20 00:05:21;;;;;;;2.83;1.75;;;;;;;;;;2055256;28;20098;-44
2024/02/20 00:06:23;;;;;;;5.97;1.80;;;;;;;;;;2056104;28;20022;-44
2024/02/20 00:07:24;;;;;;;3.45;1.73;;;;;;;;;;2048988;28;20085;-43
2024/02/20 00:08:25;;;;;;;3.65;1.70;;;;;;;;;;2051626;28;20023;-43
2024/02/20 00:09:26;;;;;;;3.65;1.55;;;;;;;;;;2052664;28;20033;-43
2024/02/20 00:10:28;;;;;;;5.65;1.98;;;;;;;;;;2053655;28;20023;-43
2024/02/20 00:11:29;;;;;;;2.95;1.45;;;;;;;;;;2050338;28;20546;-43
2024/02/20 00:12:32;;;;;;;5.28;2.13;;;;;;;;;;2049664;28;20081;-42
2024/02/20 00:13:33;;;;;;;5.05;2.00;;;;;;;;;;2049198;28;20193;-43
2024/02/20 00:14:34;;;;;;;6.22;1.90;;;;;;;;;;2049578;28;20114;-42
2024/02/20 00:15:36;;;;;;;2.55;1.30;;;;;;;;;;2061634;28;20068;-52
2024/02/20 00:16:37;;;;;;;4.03;1.80;;;;;;;;;;2060242;28;20023;-44
2024/02/20 00:17:38;;;;;;;3.33;1.63;;;;;;;;;;2048804;29;20481;-42
2024/02/20 00:18:39;;;;;;;3.40;1.70;;;;;;;;;;2056451;28;20125;-42
2024/02/20 00:19:41;;;;;;;2.58;1.20;;;;;;;;;;2056678;28;20011;-42
2024/02/20 00:20:44;;;;;;;3.55;1.27;;;;;;;;;;2056259;28;20026;-42
2024/02/20 00:21:47;;;;;;;2.30;1.63;;;;;;;;;;2056002;28;20055;-42
2024/02/20 00:22:48;;;;;;;2.70;1.52;;;;;;;;;;2056523;28;20031;-43
2024/02/20 00:23:51;;;;;;;2.22;1.15;;;;;;;;;;2056783;28;20030;-42
2024/02/20 00:24:52;;;;;;;3.78;1.55;;;;;;;;;;2056503;28;20094;-48
2024/02/20 00:25:53;;;;;;;4.68;1.52;;;;;;;;;;2056326;28;20526;-42
2024/02/20 00:26:55;;;;;;;2.65;1.50;;;;;;;;;;2056795;28;20022;-42
2024/02/20 00:27:57;;;;;;;2.88;1.50;;;;;;;;;;2056261;28;20425;-42
2024/02/20 00:28:58;;;;;;;2.72;1.25;;;;;;;;;;2056083;28;20019;-42
2024/02/20 00:30:00;;;;;;;2.95;1.45;;;;;;;;;;2048835;28;20015;-41
2024/02/20 00:31:01;;;;;;;3.33;1.33;;;;;;;;;;2049414;28;20023;-43
2024/02/20 00:32:04;;;;;;;2.85;1.30;;;;;;;;;;2056771;28;20046;-42
2024/02/20 00:33:06;;;;;;;4.45;1.75;;;;;;;;;;2056835;28;20054;-42
2024/02/20 00:34:07;;;;;;;2.97;1.58;;;;;;;;;;2056405;28;20058;-42
2024/02/20 00:35:08;;;;;;;2.00;1.25;;;;;;;;;;2056903;28;20030;-42
2024/02/20 00:36:09;;;;;;;3.03;1.35;;;;;;;;;;2055774;28;20154;-43
2024/02/20 00:37:11;;;;;;;2.40;1.38;;;;;;;;;;2056044;28;20094;-43
2024/02/20 00:38:12;;;;;;;2.78;1.50;;;;;;;;;;2048809;29;20019;-42
2024/02/20 00:39:14;;;;;;;2.72;1.48;;;;;;;;;;2054727;28;20029;-42
2024/02/20 00:40:15;;;;;;;1.70;1.02;;;;;;;;;;2056599;28;20031;-43
2024/02/20 00:41:18;;;;;;;2.20;0.85;;;;;;;;;;2048952;28;20130;-45
2024/02/20 00:42:19;;;;;;;3.58;1.33;;;;;;;;;;2050227;28;20020;-43
2024/02/20 00:43:20;;;;;;;1.85;1.00;;;;;;;;;;2048858;28;20019;-45
2024/02/20 00:44:21;;;;;;;2.42;1.30;;;;;;;;;;2056710;28;20011;-45
2024/02/20 00:45:23;;;;;;;3.20;1.30;;;;;;;;;;2056291;28;20042;-45
2024/02/20 00:46:25;;;;;;;3.78;1.30;;;;;;;;;;2056676;28;20019;-45
2024/02/20 00:47:26;;;;;;;2.72;1.20;;;;;;;;;;2051054;28;20078;-43
2024/02/20 00:48:28;;;;;;;2.72;1.05;;;;;;;;;;2050686;28;20027;-44
2024/02/20 00:49:29;;;;;;;2.10;1.10;;;;;;;;;;2048715;29;20019;-43
2024/02/20 00:50:31;;;;;;;2.55;1.30;;;;;;;;;;2050984;28;20012;-43
2024/02/20 00:51:33;;;;;;;2.85;1.17;;;;;;;;;;2050437;28;20075;-46
2024/02/20 00:52:34;;;;;;;1.77;1.00;;;;;;;;;;2056739;28;20114;-45
2024/02/20 00:53:35;;;;;;;2.72;1.38;;;;;;;;;;2055757;28;20121;-45
2024/02/20 00:54:40;;;;;;;1.48;1.15;;;;;;;;;;2051335;28;20031;-46
2024/02/20 00:55:41;;;;;;;2.40;1.17;;;;;;;;;;2055065;28;20030;-46
2024/02/20 00:56:44;;;;;;;1.95;1.00;;;;;;;;;;2060766;28;20458;-46
2024/02/20 00:57:46;;;;;;;2.40;0.98;;;;;;;;;;2058993;28;20086;-46
2024/02/20 00:58:50;;;;;;;1.65;0.88;;;;;;;;;;2056390;28;20034;-43
2024/02/20 00:59:51;;;;;;;2.75;1.05;;;;;;;;;;2052804;28;20055;-46
2024/02/20 01:00:53;;;;;;;2.72;1.20;;;;;;;;;;2052589;28;20046;-46
2024/02/20 01:01:54;;;;;;;1.83;1.02;;;;;;;;;;2056887;28;20061;-46
2024/02/20 01:02:58;;;;;;;2.13;1.27;;;;;;;;;;2057286;28;20077;-46
2024/02/20 01:03:59;;;;;;;3.30;1.30;;;;;;;;;;2057359;28;20023;-46
2024/02/20 01:05:01;;;;;;;1.90;1.00;;;;;;;;;;2057938;28;20011;-47
2024/02/20 01:06:03;;;;;;;2.53;1.35;;;;;;;;;;2057382;28;20035;-46
2024/02/20 01:07:04;;;;;;;1.92;1.17;;;;;;;;;;2057967;28;20122;-46
2024/02/20 01:08:06;;;;;;;2.85;1.45;;;;;;;;;;2057650;28;20039;-45
2024/02/20 01:09:07;;;;;;;2.45;1.23;;;;;;;;;;2050400;28;20091;-45
2024/02/20 01:10:08;;;;;;;6.47;1.90;;;;;;;;;;2053987;28;20097;-42
2024/02/20 01:11:10;;;;;;;2.85;1.10;;;;;;;;;;2058271;28;20019;-45
2024/02/20 01:12:11;;;;;;;3.38;1.25;;;;;;;;;;2058056;28;20038;-45
2024/02/20 01:13:12;;;;;;;1.55;0.98;;;;;;;;;;2055784;28;20046;-45
2024/02/20 01:14:15;;;;;;;3.08;1.40;;;;;;;;;;2050219;29;20110;-46
2024/02/20 01:15:16;;;;;;;1.98;1.05;;;;;;;;;;2055303;28;20073;-45
2024/02/20 01:16:19;;;;;;;3.15;1.30;;;;;;;;;;2056801;28;20026;-46
2024/02/20 01:17:20;;;;;;;4.45;2.42;;;;;;;;;;2051182;28;20086;-46
2024/02/20 01:18:21;;;;;;;4.53;2.35;;;;;;;;;;2056722;28;20019;-46
2024/02/20 01:19:23;;;;;;;2.60;1.73;;;;;;;;;;2057896;28;20027;-47
2024/02/20 01:20:24;;;;;;;2.20;1.38;;;;;;;;;;2057834;28;20459;-46
2024/02/20 01:21:25;;;;;;;1.60;1.10;;;;;;;;;;2057836;28;20023;-45
2024/02/20 01:22:27;;;;;;;1.33;0.77;;;;;;;;;;2057800;28;20033;-46
2024/02/20 01:23:28;;;;;;;4.25;1.33;;;;;;;;;;2057746;28;20026;-46
2024/02/20 01:24:29;;;;;;;2.05;1.10;;;;;;;;;;2055954;28;20026;-45
2024/02/20 01:25:31;;;;;;;1.65;0.90;;;;;;;;;;2052456;28;20069;-46
2024/02/20 01:26:32;;;;;;;1.75;0.98;;;;;;;;;;2057990;28;20106;-46
2024/02/20 01:27:33;;;;;;;2.55;1.08;;;;;;;;;;2055604;28;20098;-44
2024/02/20 01:28:34;;;;;;;2.05;0.88;;;;;;;;;;2065258;28;20409;-48
2024/02/20 01:29:36;;;;;;;2.92;1.15;;;;;;;;;;2069763;28;20026;-46
2024/02/20 01:30:38;;;;;;;1.25;0.75;;;;;;;;;;2054079;28;20022;-45
2024/02/20 01:31:39;;;;;;;2.45;1.08;;;;;;;;;;2058020;28;20046;-45
2024/02/20 01:32:41;;;;;;;2.72;0.98;;;;;;;;;;2057682;28;20379;-46
2024/02/20 01:33:42;;;;;;;2.03;0.93;;;;;;;;;;2057617;28;20023;-46
2024/02/20 01:34:43;;;;;;;1.92;0.93;;;;;;;;;;2057503;28;20486;-43
2024/02/20 01:35:44;;;;;;;2.35;1.08;;;;;;;;;;2057210;28;20027;-43
2024/02/20 01:36:46;;;;;;;0.98;0.70;;;;;;;;;;2057171;28;20106;-43
2024/02/20 01:37:47;;;;;;;3.17;1.50;;;;;;;;;;2056309;28;20023;-43
2024/02/20 01:38:49;;;;;;;3.83;2.40;;;;;;;;;;2057763;28;20034;-43
2024/02/20 01:39:50;;;;;;;3.92;2.25;;;;;;;;;;2057973;28;20430;-42
2024/02/20 01:40:52;;;;;;;2.97;1.35;;;;;;;;;;2057377;28;20003;-43
2024/02/20 01:41:53;;;;;;;6.45;1.17;;;;;;;;;;2057295;28;20015;-42
2024/02/20 01:42:58;;;;;;;1.70;0.95;;;;;;;;;;2057895;28;20011;-42
2024/02/20 01:43:59;;;;;;;4.03;1.08;;;;;;;;;;2057477;28;20434;-43
2024/02/20 01:45:00;;;;;;;2.00;0.88;;;;;;;;;;2056957;28;20061;-43
2024/02/20 01:46:02;;;;;;;1.52;0.80;;;;;;;;;;2057508;28;20035;-44
2024/02/20 01:47:04;;;;;;;1.90;0.98;;;;;;;;;;2055905;28;20081;-43
2024/02/20 01:48:05;;;;;;;1.38;0.90;;;;;;;;;;2052408;28;20447;-43
2024/02/20 01:49:07;;;;;;;1.33;0.80;;;;;;;;;;2057493;28;20466;-43
2024/02/20 01:50:08;;;;;;;2.42;0.77;;;;;;;;;;2054693;28;20078;-44
2024/02/20 01:51:10;;;;;;;2.30;0.98;;;;;;;;;;2049929;28;20031;-43
2024/02/20 01:52:14;;;;;;;1.02;0.70;;;;;;;;;;2056711;28;20034;-41
2024/02/20 01:53:16;;;;;;;1.02;0.63;;;;;;;;;;2057890;28;20031;-45
2024/02/20 01:54:18;;;;;;;1.02;0.75;;;;;;;;;;2057502;28;20031;-47
2024/02/20 01:55:22;;;;;;;1.33;0.60;;;;;;;;;;2057358;28;20027;-45
2024/02/20 01:56:24;;;;;;;2.70;1.00;;;;;;;;;;2057651;28;20486;-45
2024/02/20 01:57:26;;;;;;;3.08;0.82;;;;;;;;;;2057915;28;20023;-45
2024/02/20 01:58:27;;;;;;;1.83;1.10;;;;;;;;;;2056561;28;20097;-45
2024/02/20 01:59:28;;;;;;;1.10;0.70;;;;;;;;;;2057070;28;20050;-45
2024/02/20 02:00:29;;;;;;;2.20;0.90;;;;;;;;;;2056158;28;20493;-46
2024/02/20 02:01:31;;;;;;;2.60;1.10;;;;;;;;;;2057578;28;20084;-45
2024/02/20 02:02:32;;;;;;;1.40;0.82;;;;;;;;;;2057169;28;20029;-44
2024/02/20 02:03:33;;;;;;;1.65;0.80;;;;;;;;;;2057022;28;20106;-43
2024/02/20 02:04:35;;;;;;;1.10;0.60;;;;;;;;;;2057353;28;20412;-43
2024/02/20 02:05:36;;;;;;;1.90;1.08;;;;;;;;;;2057852;28;20104;-43
2024/02/20 02:06:38;;;;;;;3.00;1.10;;;;;;;;;;2057407;28;20541;-43
2024/02/20 02:07:39;;;;;;;1.48;0.80;;;;;;;;;;2057090;28;20019;-44
2024/02/20 02:08:41;;;;;;;1.08;0.80;;;;;;;;;;2056635;28;20679;-44
2024/02/20 02:09:42;;;;;;;2.50;0.93;;;;;;;;;;2057495;28;20062;-44
2024/02/20 02:10:44;;;;;;;1.70;0.90;;;;;;;;;;2057773;28;20088;-44
2024/02/20 02:11:46;;;;;;;1.80;0.77;;;;;;;;;;2057340;28;20481;-45
2024/02/20 02:12:47;;;;;;;1.52;0.75;;;;;;;;;;2057153;28;20026;-44
2024/02/20 02:13:48;;;;;;;1.52;0.70;;;;;;;;;;2057011;28;20469;-44
2024/02/20 02:14:50;;;;;;;0.80;0.70;;;;;;;;;;2056422;28;20512;-43
2024/02/20 02:15:51;;;;;;;1.88;0.60;;;;;;;;;;2049582;29;20038;-43
2024/02/20 02:16:52;;;;;;;1.60;1.00;;;;;;;;;;2056761;28;20019;-44
2024/02/20 02:17:53;;;;;;;0.98;0.60;;;;;;;;;;2052529;28;20055;-44
2024/02/20 02:18:55;;;;;;;2.00;0.80;;;;;;;;;;2056994;28;20085;-44
2024/02/20 02:19:56;;;;;;;1.80;0.68;;;;;;;;;;2057455;28;20022;-44
2024/02/20 02:20:57;;;;;;;1.95;0.80;;;;;;;;;;2057562;28;20025;-42
2024/02/20 02:21:58;;;;;;;1.63;0.70;;;;;;;;;;2056719;28;20022;-47
2024/02/20 02:23:00;;;;;;;1.83;0.60;;;;;;;;;;2051101;28;20012;-46
2024/02/20 02:24:01;;;;;;;1.60;0.80;;;;;;;;;;2054872;28;20122;-46
2024/02/20 02:25:06;;;;;;;0.90;0.65;;;;;;;;;;2056798;28;20508;-44
2024/02/20 02:26:13;;;;;;;1.45;0.85;;;;;;;;;;2056912;28;20031;-43
2024/02/20 02:27:14;;;;;;;1.50;0.80;;;;;;;;;;2055994;28;20109;-43
2024/02/20 02:28:16;;;;;;;1.45;0.90;;;;;;;;;;2055408;28;20403;-43
2024/02/20 02:29:17;;;;;;;1.70;0.77;;;;;;;;;;2057471;28;20474;-43
2024/02/20 02:30:19;;;;;;;1.85;0.65;;;;;;;;;;2057328;28;20011;-43
2024/02/20 02:31:20;;;;;;;0.82;0.50;;;;;;;;;;2057530;28;20046;-43
2024/02/20 02:32:21;;;;;;;1.20;0.60;;;;;;;;;;2049629;28;20016;-44
2024/02/20 02:33:23;;;;;;;1.15;0.50;;;;;;;;;;2057253;28;20403;-43
2024/02/20 02:34:27;;;;;;;0.93;0.47;;;;;;;;;;2057251;28;20096;-43
2024/02/20 02:35:29;;;;;;;2.25;0.60;;;;;;;;;;2057394;28;20094;-45
2024/02/20 02:36:30;;;;;;;1.33;0.60;;;;;;;;;;2057176;28;20462;-45
2024/02/20 02:37:31;;;;;;;1.73;0.60;;;;;;;;;;2057098;28;20023;-47
2024/02/20 02:38:32;;;;;;;1.02;0.70;;;;;;;;;;2057396;28;20031;-47
2024/02/20 02:39:33;;;;;;;2.40;0.60;;;;;;;;;;2057342;28;20011;-47
2024/02/20 02:40:35;;;;;;;1.20;0.60;;;;;;;;;;2057378;28;20027;-46
2024/02/20 02:41:37;;;;;;;1.92;0.85;;;;;;;;;;2057420;28;20371;-47
2024/02/20 02:42:38;;;;;;;2.17;0.73;;;;;;;;;;2056336;28;20023;-47
2024/02/20 02:43:40;;;;;;;1.00;0.60;;;;;;;;;;2057413;28;20446;-45
2024/02/20 02:44:43;;;;;;;1.70;0.68;;;;;;;;;;2055638;28;20019;-46
2024/02/20 02:45:45;;;;;;;0.82;0.55;;;;;;;;;;2057411;28;20019;-44
2024/02/20 02:46:46;;;;;;;0.82;0.43;;;;;;;;;;2057270;28;20536;-45
2024/02/20 02:47:47;;;;;;;1.52;0.88;;;;;;;;;;2056700;28;20078;-46
2024/02/20 02:48:50;;;;;;;1.75;1.05;;;;;;;;;;2056736;28;20031;-46
2024/02/20 02:49:51;;;;;;;1.35;0.50;;;;;;;;;;2057292;28;20358;-46
2024/02/20 02:50:52;;;;;;;2.58;0.80;;;;;;;;;;2057363;28;20636;-49
2024/02/20 02:51:54;;;;;;;1.80;0.60;;;;;;;;;;2057070;28;20045;-44
2024/02/20 02:52:55;;;;;;;1.05;0.50;;;;;;;;;;2057102;28;20454;-47
2024/02/20 02:53:56;;;;;;;1.38;0.70;;;;;;;;;;2057190;28;20027;-46
2024/02/20 02:54:57;;;;;;;3.00;0.93;;;;;;;;;;2057149;28;20386;-46
2024/02/20 02:55:59;;;;;;;1.65;0.80;;;;;;;;;;2055672;28;20019;-45
2024/02/20 02:57:00;;;;;;;1.80;0.77;;;;;;;;;;2057356;28;20086;-44
2024/02/20 02:58:01;;;;;;;1.58;0.70;;;;;;;;;;2057223;28;20374;-45
2024/02/20 02:59:04;;;;;;;2.65;0.77;;;;;;;;;;2057034;28;20379;-44
2024/02/20 03:00:11;;;;;;;2.47;1.02;;;;;;;;;;2057349;28;20015;-45
2024/02/20 03:01:13;;;;;;;1.20;0.77;;;;;;;;;;2057223;28;20475;-44
2024/02/20 03:02:14;;;;;;;1.45;0.63;;;;;;;;;;2057105;28;20102;-44
2024/02/20 03:03:15;;;;;;;1.35;0.68;;;;;;;;;;2057229;28;20066;-45
2024/02/20 03:04:17;;;;;;;2.78;0.88;;;;;;;;;;2057121;28;20470;-44
2024/02/20 03:05:18;;;;;;;3.13;0.80;;;;;;;;;;2057305;28;20081;-47
2024/02/20 03:06:20;;;;;;;2.63;0.70;;;;;;;;;;2055473;28;20185;-44
2024/02/20 03:07:22;;;;;;;1.17;0.70;;;;;;;;;;2057157;28;20478;-44
2024/02/20 03:08:23;;;;;;;1.70;0.88;;;;;;;;;;2057376;28;20021;-46
2024/02/20 03:09:25;;;;;;;1.02;0.73;;;;;;;;;;2057077;28;20478;-45
2024/02/20 03:10:27;;;;;;;1.58;0.90;;;;;;;;;;2064408;28;20018;-44
2024/02/20 03:11:28;;;;;;;1.65;0.80;;;;;;;;;;2064661;28;20105;-42
2024/02/20 03:12:30;;;;;;;1.50;0.80;;;;;;;;;;2056900;28;20098;-44
2024/02/20 03:13:31;;;;;;;1.67;0.70;;;;;;;;;;2057212;28;20014;-46
2024/02/20 03:14:32;;;;;;;1.50;0.82;;;;;;;;;;2056896;28;20011;-44
2024/02/20 03:15:34;;;;;;;1.67;0.80;;;;;;;;;;2053813;28;20102;-43
2024/02/20 03:16:35;;;;;;;1.52;0.80;;;;;;;;;;2057201;28;20089;-43
2024/02/20 03:17:43;;;;;;;1.52;0.68;;;;;;;;;;2057171;28;20477;-42
2024/02/20 03:18:44;;;;;;;1.83;1.00;;;;;;;;;;2057169;28;20030;-43
2024/02/20 03:19:45;;;;;;;1.25;0.80;;;;;;;;;;2057202;28;20029;-43
2024/02/20 03:20:47;;;;;;;4.50;0.98;;;;;;;;;;2057310;28;20015;-43
2024/02/20 03:21:48;;;;;;;1.50;0.75;;;;;;;;;;2057065;28;20007;-43
2024/02/20 03:22:50;;;;;;;1.65;0.80;;;;;;;;;;2057020;28;20482;-42
2024/02/20 03:23:51;;;;;;;1.73;0.70;;;;;;;;;;2056977;28;20022;-42
2024/02/20 03:24:52;;;;;;;1.25;0.60;;;;;;;;;;2056159;28;20018;-43
2024/02/20 03:25:55;;;;;;;1.10;0.57;;;;;;;;;;2056729;28;20053;-42
2024/02/20 03:26:57;;;;;;;1.00;0.70;;;;;;;;;;2056905;28;20057;-43
2024/02/20 03:27:58;;;;;;;1.98;0.90;;;;;;;;;;2057294;28;20061;-42
2024/02/20 03:29:00;;;;;;;1.05;0.55;;;;;;;;;;2056144;28;20549;-42
2024/02/20 03:30:02;;;;;;;1.27;0.80;;;;;;;;;;2056948;28;20039;-42
2024/02/20 03:31:03;;;;;;;0.85;0.50;;;;;;;;;;2057256;28;20062;-44
2024/02/20 03:32:04;;;;;;;1.30;0.55;;;;;;;;;;2056977;28;20023;-45
2024/02/20 03:33:06;;;;;;;3.40;0.80;;;;;;;;;;2056853;28;20043;-44
2024/02/20 03:34:07;;;;;;;1.70;0.80;;;;;;;;;;2057205;28;20040;-45
2024/02/20 03:35:15;;;;;;;3.08;0.85;;;;;;;;;;2056708;28;20027;-46
2024/02/20 03:36:17;;;;;;;1.85;1.02;;;;;;;;;;2057132;28;20022;-46
2024/02/20 03:37:18;;;;;;;1.80;1.00;;;;;;;;;;2056797;28;20027;-42
2024/02/20 03:38:20;;;;;;;1.70;0.90;;;;;;;;;;2055760;28;20026;-43
2024/02/20 03:39:23;;;;;;;2.25;0.82;;;;;;;;;;2055614;28;20059;-43
2024/02/20 03:40:24;;;;;;;1.75;0.70;;;;;;;;;;2055830;28;20031;-43
2024/02/20 03:41:26;;;;;;;1.48;0.70;;;;;;;;;;2057146;28;20458;-41
2024/02/20 03:42:27;;;;;;;2.50;1.13;;;;;;;;;;2056723;28;20566;-43
2024/02/20 03:43:28;;;;;;;1.58;0.90;;;;;;;;;;2056943;28;20026;-42
2024/02/20 03:44:29;;;;;;;1.55;0.65;;;;;;;;;;2056294;28;20019;-42
2024/02/20 03:45:31;;;;;;;1.95;1.02;;;;;;;;;;2056364;28;20015;-42
2024/02/20 03:46:32;;;;;;;1.75;0.70;;;;;;;;;;2056462;28;20007;-42
2024/02/20 03:47:33;;;;;;;1.48;0.80;;;;;;;;;;2056210;28;20026;-42
2024/02/20 03:48:35;;;;;;;1.10;0.68;;;;;;;;;;2056285;28;20134;-42
2024/02/20 03:49:36;;;;;;;1.70;0.60;;;;;;;;;;2053269;28;20066;-43
2024/02/20 03:50:37;;;;;;;2.67;0.73;;;;;;;;;;2053626;28;20058;-43
2024/02/20 03:51:39;;;;;;;1.98;0.70;;;;;;;;;;2056417;28;20033;-43
2024/02/20 03:52:40;;;;;;;1.52;0.75;;;;;;;;;;2056371;28;20026;-44
2024/02/20 03:53:41;;;;;;;1.20;0.60;;;;;;;;;;2056594;28;20046;-46
2024/02/20 03:54:42;;;;;;;2.90;0.73;;;;;;;;;;2056616;28;20027;-44
2024/02/20 03:55:44;;;;;;;1.83;0.80;;;;;;;;;;2056786;28;20026;-46
2024/02/20 03:56:45;;;;;;;1.02;0.70;;;;;;;;;;2056754;28;20034;-46
2024/02/20 03:57:47;;;;;;;1.40;0.88;;;;;;;;;;2055994;28;20081;-45
2024/02/20 03:58:48;;;;;;;1.83;0.75;;;;;;;;;;2057002;28;20030;-44
2024/02/20 03:59:49;;;;;;;1.77;0.90;;;;;;;;;;2056660;28;20011;-44
2024/02/20 04:00:51;;;;;;;1.85;1.05;;;;;;;;;;2056300;28;20038;-43
2024/02/20 04:01:52;;;;;;;1.60;0.77;;;;;;;;;;2056766;28;20397;-42
2024/02/20 04:02:54;;;;;;;2.42;0.95;;;;;;;;;;2056826;28;20160;-42
2024/02/20 04:03:55;;;;;;;1.98;0.88;;;;;;;;;;2056642;28;20018;-42
2024/02/20 04:04:56;;;;;;;1.55;0.77;;;;;;;;;;2056943;28;20038;-42
2024/02/20 04:05:58;;;;;;;1.50;0.75;;;;;;;;;;2064003;28;20018;-42
2024/02/20 04:06:59;;;;;;;1.35;0.80;;;;;;;;;;2056155;28;20553;-42
2024/02/20 04:08:00;;;;;;;1.20;0.80;;;;;;;;;;2056135;28;20029;-42
2024/02/20 04:09:04;;;;;;;1.45;0.80;;;;;;;;;;2056162;28;20502;-43
2024/02/20 04:10:07;;;;;;;1.70;0.93;;;;;;;;;;2056208;28;20035;-42
2024/02/20 04:11:08;;;;;;;1.75;0.90;;;;;;;;;;2056810;28;20027;-42
2024/02/20 04:12:10;;;;;;;2.17;0.80;;;;;;;;;;2056730;28;20038;-42
2024/02/20 04:13:11;;;;;;;1.77;0.90;;;;;;;;;;2056868;28;20031;-42
2024/02/20 04:14:12;;;;;;;1.63;0.70;;;;;;;;;;2057015;28;20366;-46
2024/02/20 04:15:14;;;;;;;0.88;0.55;;;;;;;;;;2053392;28;20050;-46
2024/02/20 04:16:16;;;;;;;1.88;0.88;;;;;;;;;;2053385;28;20031;-43
2024/02/20 04:17:17;;;;;;;2.58;0.80;;;;;;;;;;2056607;28;20170;-42
2024/02/20 04:18:18;;;;;;;2.72;1.00;;;;;;;;;;2056822;28;20058;-45
2024/02/20 04:19:20;;;;;;;1.70;0.65;;;;;;;;;;2054477;28;20102;-44
2024/02/20 04:20:21;;;;;;;1.10;0.90;;;;;;;;;;2055865;28;20065;-45
2024/02/20 04:21:22;;;;;;;1.98;0.77;;;;;;;;;;2056106;28;20027;-44
2024/02/20 04:22:23;;;;;;;1.02;0.55;;;;;;;;;;2056500;28;20032;-45
2024/02/20 04:23:26;;;;;;;1.38;1.23;;;;;;;;;;2056077;28;20042;-42
2024/02/20 04:24:27;;;;;;;1.90;1.02;;;;;;;;;;2064441;28;20034;-42
2024/02/20 04:25:28;;;;;;;1.92;0.85;;;;;;;;;;2067945;28;20034;-42
2024/02/20 04:26:30;;;;;;;1.17;0.60;;;;;;;;;;2056627;28;20099;-42
2024/02/20 04:27:33;;;;;;;1.02;0.70;;;;;;;;;;2056520;28;20589;-42
2024/02/20 04:28:37;;;;;;;1.40;0.63;;;;;;;;;;2056645;28;20030;-41
2024/02/20 04:29:38;;;;;;;1.88;0.85;;;;;;;;;;2053845;28;20055;-42
2024/02/20 04:30:44;;;;;;;1.25;0.73;;;;;;;;;;2054772;28;20026;-43
2024/02/20 04:31:45;;;;;;;3.33;0.85;;;;;;;;;;2055018;28;20062;-42
2024/02/20 04:32:47;;;;;;;1.08;0.73;;;;;;;;;;2056521;28;20023;-42
2024/02/20 04:33:48;;;;;;;1.25;0.90;;;;;;;;;;2055826;28;20026;-42
2024/02/20 04:34:49;;;;;;;1.80;0.90;;;;;;;;;;2056102;28;20105;-44
2024/02/20 04:35:50;;;;;;;1.17;0.60;;;;;;;;;;2056440;28;20030;-45
2024/02/20 04:36:52;;;;;;;1.35;0.80;;;;;;;;;;2056753;28;20023;-46
2024/02/20 04:37:53;;;;;;;1.33;0.70;;;;;;;;;;2056780;28;20026;-45
2024/02/20 04:38:57;;;;;;;1.35;0.57;;;;;;;;;;2056519;28;20026;-47
2024/02/20 04:39:58;;;;;;;2.85;0.60;;;;;;;;;;2054768;28;20023;-47
2024/02/20 04:41:00;;;;;;;2.28;1.00;;;;;;;;;;2056563;28;20030;-46
2024/02/20 04:42:01;;;;;;;1.63;0.80;;;;;;;;;;2054958;28;20042;-46
2024/02/20 04:43:02;;;;;;;1.85;0.98;;;;;;;;;;2056260;28;20014;-47
2024/02/20 04:44:03;;;;;;;1.25;0.75;;;;;;;;;;2056725;28;20623;-42
2024/02/20 04:45:05;;;;;;;2.88;0.90;;;;;;;;;;2056357;28;20038;-44
2024/02/20 04:46:06;;;;;;;2.20;0.93;;;;;;;;;;2056408;28;20027;-42
2024/02/20 04:47:08;;;;;;;2.22;1.08;;;;;;;;;;2055852;28;20022;-44
2024/02/20 04:48:09;;;;;;;1.17;0.73;;;;;;;;;;2052324;28;20113;-44
2024/02/20 04:49:12;;;;;;;1.52;1.23;;;;;;;;;;2056464;28;20042;-46
2024/02/20 04:50:16;;;;;;;1.63;0.68;;;;;;;;;;2056551;28;20146;-43
2024/02/20 04:51:17;;;;;;;1.23;0.60;;;;;;;;;;2056436;28;20083;-44
2024/02/20 04:52:19;;;;;;;1.58;0.50;;;;;;;;;;2056011;28;20019;-43
2024/02/20 04:53:20;;;;;;;1.13;0.60;;;;;;;;;;2055964;28;20027;-44
2024/02/20 04:54:21;;;;;;;0.93;0.75;;;;;;;;;;2056302;28;20098;-43
2024/02/20 04:55:23;;;;;;;1.40;0.65;;;;;;;;;;2056499;28;20272;-43
2024/02/20 04:56:24;;;;;;;1.45;0.80;;;;;;;;;;2056575;28;20037;-42
2024/02/20 04:57:25;;;;;;;2.22;0.93;;;;;;;;;;2056333;28;20050;-44
2024/02/20 04:58:27;;;;;;;2.08;0.90;;;;;;;;;;2056569;28;20023;-45
2024/02/20 04:59:28;;;;;;;1.83;0.70;;;;;;;;;;2056078;28;20053;-45
2024/02/20 05:00:30;;;;;;;1.95;0.95;;;;;;;;;;2053562;28;20066;-44
2024/02/20 05:01:31;;;;;;;1.40;0.80;;;;;;;;;;2053866;28;20050;-44
2024/02/20 05:02:35;;;;;;;3.58;0.75;;;;;;;;;;2056221;28;20026;-46
2024/02/20 05:03:36;;;;;;;1.52;0.80;;;;;;;;;;2050788;28;20495;-45
2024/02/20 05:04:37;;;;;;;2.25;0.77;;;;;;;;;;2051266;28;20025;-45
2024/02/20 05:05:38;;;;;;;2.00;0.63;;;;;;;;;;2055944;28;20029;-45
2024/02/20 05:06:40;;;;;;;3.60;0.80;;;;;;;;;;2056437;28;20470;-44
2024/02/20 05:07:41;;;;;;;1.17;0.70;;;;;;;;;;2056463;28;20014;-45
2024/02/20 05:08:42;;;;;;;1.13;0.70;;;;;;;;;;2056491;28;20157;-44
2024/02/20 05:09:43;;;;;;;1.58;0.70;;;;;;;;;;2052386;28;20027;-45
2024/02/20 05:10:45;;;;;;;3.38;1.10;;;;;;;;;;2056205;28;20026;-44
2024/02/20 05:11:46;;;;;;;1.50;0.88;;;;;;;;;;2056434;28;20486;-44
2024/02/20 05:12:47;;;;;;;1.88;1.00;;;;;;;;;;2056296;28;20439;-45
2024/02/20 05:13:49;;;;;;;2.13;0.63;;;;;;;;;;2055697;28;20073;-43
2024/02/20 05:14:50;;;;;;;2.40;0.90;;;;;;;;;;2050029;28;20035;-45
2024/02/20 05:15:51;;;;;;;1.45;0.90;;;;;;;;;;2055014;28;20018;-45
2024/02/20 05:16:52;;;;;;;2.20;0.60;;;;;;;;;;2056406;28;20393;-45
2024/02/20 05:17:53;;;;;;;1.58;0.85;;;;;;;;;;2056417;28;20031;-45
2024/02/20 05:18:55;;;;;;;1.60;0.85;;;;;;;;;;2056007;28;20051;-44
2024/02/20 05:19:56;;;;;;;1.85;0.75;;;;;;;;;;2056189;28;20146;-45
2024/02/20 05:20:57;;;;;;;1.88;0.75;;;;;;;;;;2056244;28;20378;-46
2024/02/20 05:21:58;;;;;;;1.48;0.80;;;;;;;;;;2056234;28;20510;-46
2024/02/20 05:23:00;;;;;;;1.63;0.50;;;;;;;;;;2056553;28;20038;-43
2024/02/20 05:24:01;;;;;;;1.40;0.60;;;;;;;;;;2055821;28;20090;-45
2024/02/20 05:25:03;;;;;;;2.35;1.00;;;;;;;;;;2055121;28;20097;-44
2024/02/20 05:26:05;;;;;;;1.40;0.80;;;;;;;;;;2055565;28;20057;-46
2024/02/20 05:27:06;;;;;;;1.92;0.88;;;;;;;;;;2052781;28;20018;-44
2024/02/20 05:28:07;;;;;;;2.78;0.80;;;;;;;;;;2060744;28;20034;-45
2024/02/20 05:29:09;;;;;;;2.53;0.77;;;;;;;;;;2052177;28;20035;-46
2024/02/20 05:30:11;;;;;;;1.52;0.60;;;;;;;;;;2052860;28;20026;-46
2024/02/20 05:31:28;;;;;;;1.20;0.70;;;;;;;;;;2055998;28;20035;-46
2024/02/20 05:32:31;;;;;;;3.42;0.82;;;;;;;;;;2055848;28;20109;-45
2024/02/20 05:33:32;;;;;;;2.20;0.70;;;;;;;;;;2055588;28;20035;-45
2024/02/20 05:34:33;;;;;;;1.23;0.88;;;;;;;;;;2056263;28;20027;-45
2024/02/20 05:35:35;;;;;;;2.05;0.93;;;;;;;;;;2056209;28;20069;-45
2024/02/20 05:36:36;;;;;;;3.28;0.88;;;;;;;;;;2055906;28;20069;-45
2024/02/20 05:37:37;;;;;;;1.23;0.70;;;;;;;;;;2055674;28;20048;-43
2024/02/20 05:38:38;;;;;;;1.55;0.80;;;;;;;;;;2055530;28;20082;-45
2024/02/20 05:39:39;;;;;;;2.60;0.77;;;;;;;;;;2053273;28;20095;-46
2024/02/20 05:40:41;;;;;;;1.75;1.00;;;;;;;;;;2055314;28;20049;-44
2024/02/20 05:41:42;;;;;;;2.13;0.60;;;;;;;;;;2052744;28;20026;-44
2024/02/20 05:42:43;;;;;;;1.48;0.90;;;;;;;;;;2052608;28;20374;-44
2024/02/20 05:43:45;;;;;;;0.90;0.50;;;;;;;;;;2055568;28;20102;-44
2024/02/20 05:44:46;;;;;;;2.78;0.70;;;;;;;;;;2055999;28;20038;-44
2024/02/20 05:45:47;;;;;;;1.85;0.85;;;;;;;;;;2056400;28;20046;-41
2024/02/20 05:46:49;;;;;;;1.27;0.70;;;;;;;;;;2055400;28;20102;-44
2024/02/20 05:47:50;;;;;;;1.27;0.75;;;;;;;;;;2054000;28;20447;-44
2024/02/20 05:48:51;;;;;;;1.50;0.80;;;;;;;;;;2056176;28;20058;-45
2024/02/20 05:49:53;;;;;;;1.35;1.00;;;;;;;;;;2056878;28;20504;-44
2024/02/20 05:50:54;;;;;;;3.95;0.98;;;;;;;;;;2056823;28;20075;-45
2024/02/20 05:51:55;;;;;;;2.35;0.73;;;;;;;;;;2048971;28;20016;-44
2024/02/20 05:52:56;;;;;;;2.33;1.30;;;;;;;;;;2056660;28;20041;-45
2024/02/20 05:53:58;;;;;;;2.78;1.13;;;;;;;;;;2056099;28;20019;-46
2024/02/20 05:54:59;;;;;;;3.17;1.35;;;;;;;;;;2057403;28;20034;-44
2024/02/20 05:56:01;;;;;;;1.20;0.88;;;;;;;;;;2053807;28;20067;-45
2024/02/20 05:57:02;;;;;;;2.15;1.02;;;;;;;;;;2057137;28;20031;-47
2024/02/20 05:58:03;;;;;;;2.58;0.80;;;;;;;;;;2057015;28;20026;-43
2024/02/20 05:59:05;;;;;;;4.18;1.15;;;;;;;;;;2056871;28;20126;-44
2024/02/20 06:00:07;;;;;;;2.13;1.00;;;;;;;;;;2057602;28;20339;-44
2024/02/20 06:01:09;;;;;;;1.40;0.82;;;;;;;;;;2057654;28;20030;-42
2024/02/20 06:02:11;;;;;;;1.48;1.02;;;;;;;;;;2057788;28;20053;-44
2024/02/20 06:03:12;;;;;;;4.80;1.15;;;;;;;;;;2057650;28;20363;-44
2024/02/20 06:04:13;;;;;;;1.45;1.00;;;;;;;;;;2057698;28;20015;-45
2024/02/20 06:05:15;;;;;;;1.30;0.80;;;;;;;;;;2057775;28;20050;-47
2024/02/20 06:06:16;;;;;;;0.95;0.80;;;;;;;;;;2057622;28;20015;-46
2024/02/20 06:07:18;;;;;;;2.92;0.90;;;;;;;;;;2057471;28;20019;-44
2024/02/20 06:08:19;;;;;;;1.85;0.95;;;;;;;;;;2057840;28;20015;-45
2024/02/20 06:09:20;;;;;;;1.50;1.02;;;;;;;;;;2057455;28;20034;-45